Time;durP1;ratioP1;P1;durP2;ratioP2;P2;SDS_P1;SDS_P2;PMS_P1;PMS_P2;Temp;Humidity;BMP_temperature;BMP_pressure;BME280_temperature;BME280_humidity;BME280_pressure;Samples;Min_cycle;Max_cycle;Signal;HPM_P1;HPM_P2
2021/01/27 00:00:34;;;;;;;45.22;33.85;;;;;;;;;;5080171;28;20376;-71
2021/01/27 00:03:00;;;;;;;50.65;35.63;;;;;;;;;;5086107;28;20406;-72
2021/01/27 00:05:30;;;;;;;43.95;32.53;;;0.90;99.90;;;;;;5083395;28;20892;-71
2021/01/27 00:07:57;;;;;;;50.00;35.73;;;;;;;;;;5086694;28;20989;-72
2021/01/27 00:10:23;;;;;;;39.67;30.92;;;0.70;99.90;;;;;;5082590;28;20816;-72
2021/01/27 00:12:49;;;;;;;32.22;27.40;;;0.90;99.90;;;;;;5086038;28;20389;-72
2021/01/27 00:15:16;;;;;;;35.40;29.43;;;;;;;;;;5085110;28;20395;-72
2021/01/27 00:17:43;;;;;;;33.65;27.27;;;;;;;;;;5085946;28;20370;-72
2021/01/27 00:20:14;;;;;;;35.58;28.02;;;1.00;99.90;;;;;;5079282;28;20429;-74
2021/01/27 00:22:40;;;;;;;40.90;31.48;;;0.90;99.90;;;;;;5090320;28;20407;-72
2021/01/27 00:25:07;;;;;;;33.28;27.55;;;;;;;;;;5083793;28;20422;-71
2021/01/27 00:27:33;;;;;;;36.67;28.58;;;;;;;;;;5102461;28;20442;-71
2021/01/27 00:29:58;;;;;;;32.15;27.27;;;0.90;99.90;;;;;;5097091;28;20450;-72
2021/01/27 00:32:24;;;;;;;32.63;26.52;;;0.80;99.90;;;;;;5099914;28;20382;-71
2021/01/27 00:34:50;;;;;;;34.40;28.20;;;0.80;99.90;;;;;;5099729;28;20859;-72
2021/01/27 00:37:16;;;;;;;32.13;26.15;;;0.80;99.90;;;;;;5101591;28;20416;-71
2021/01/27 00:39:41;;;;;;;37.38;28.95;;;0.80;99.90;;;;;;5087205;28;20393;-72
2021/01/27 00:42:07;;;;;;;30.02;26.58;;;0.60;99.90;;;;;;5085209;28;20476;-74
2021/01/27 00:44:32;;;;;;;25.40;21.90;;;1.20;99.90;;;;;;5084057;28;20379;-74
2021/01/27 00:46:58;;;;;;;29.88;24.73;;;0.90;99.90;;;;;;5086669;28;20405;-74
2021/01/27 00:49:24;;;;;;;30.10;24.75;;;0.80;99.90;;;;;;5082856;28;20518;-74
2021/01/27 00:51:50;;;;;;;27.60;24.42;;;;;;;;;;5089476;28;20419;-74
2021/01/27 00:54:16;;;;;;;29.83;24.30;;;;;;;;;;5081919;28;20467;-73
2021/01/27 00:56:42;;;;;;;30.02;25.33;;;;;;;;;;5088987;28;20745;-72
2021/01/27 00:59:08;;;;;;;24.98;22.02;;;;;;;;;;5082954;28;20372;-72
2021/01/27 01:01:33;;;;;;;29.67;24.15;;;0.70;99.90;;;;;;5087817;28;20369;-74
2021/01/27 01:03:59;;;;;;;31.37;25.23;;;0.90;99.90;;;;;;5087145;28;20948;-74
2021/01/27 01:06:24;;;;;;;26.40;22.63;;;0.90;99.90;;;;;;5084756;28;20374;-74
2021/01/27 01:08:50;;;;;;;26.07;23.27;;;;;;;;;;5081425;28;20379;-73
2021/01/27 01:11:16;;;;;;;30.13;24.50;;;;;;;;;;5084456;28;21067;-73
2021/01/27 01:13:42;;;;;;;27.77;23.93;;;;;;;;;;5082468;28;20424;-74
2021/01/27 01:16:08;;;;;;;27.13;23.38;;;;;;;;;;5085121;28;20985;-72
2021/01/27 01:18:34;;;;;;;28.77;23.95;;;0.70;99.90;;;;;;5084747;28;20908;-73
2021/01/27 01:20:59;;;;;;;26.55;23.67;;;0.70;99.90;;;;;;5084218;28;20393;-75
2021/01/27 01:23:27;;;;;;;26.35;22.30;;;;;;;;;;5072669;28;22396;-74
2021/01/27 01:25:53;;;;;;;23.98;21.27;;;;;;;;;;5073154;28;20762;-75
2021/01/27 01:28:19;;;;;;;24.20;20.45;;;;;;;;;;5072856;28;20376;-75
2021/01/27 01:30:46;;;;;;;24.50;21.53;;;0.80;99.90;;;;;;5071287;28;20471;-74
2021/01/27 01:33:19;;;;;;;25.70;22.90;;;0.40;99.90;;;;;;5091675;28;20374;-75
2021/01/27 01:35:45;;;;;;;27.88;22.98;;;0.60;99.90;;;;;;5092913;28;20405;-75
2021/01/27 01:38:12;;;;;;;25.97;23.17;;;0.70;99.90;;;;;;5093059;28;20397;-75
2021/01/27 01:40:41;;;;;;;28.20;24.77;;;;;;;;;;5093065;28;20818;-74
2021/01/27 01:43:17;;;;;;;28.30;24.47;;;0.60;99.90;;;;;;5092810;28;20381;-74
2021/01/27 01:45:46;;;;;;;28.95;24.52;;;;;;;;;;5092811;28;20447;-74
2021/01/27 01:48:15;;;;;;;28.97;23.40;;;;;;;;;;5092856;28;20717;-74
2021/01/27 01:50:43;;;;;;;29.15;24.90;;;0.80;99.90;;;;;;5092540;28;20398;-75
2021/01/27 01:53:09;;;;;;;30.02;25.42;;;0.60;99.90;;;;;;5092676;28;20465;-74
2021/01/27 01:55:34;;;;;;;26.45;23.67;;;0.70;99.90;;;;;;5091345;28;20390;-74
2021/01/27 01:58:01;;;;;;;26.83;23.05;;;0.90;99.90;;;;;;5091348;28;20884;-73
2021/01/27 02:00:29;;;;;;;26.40;22.75;;;0.90;99.90;;;;;;5092562;28;20390;-74
2021/01/27 02:02:55;;;;;;;25.23;21.83;;;;;;;;;;5092375;28;20390;-73
2021/01/27 02:05:24;;;;;;;26.93;22.70;;;0.60;99.90;;;;;;5092276;28;20423;-73
2021/01/27 02:07:51;;;;;;;29.00;23.58;;;0.70;99.90;;;;;;5092454;28;20394;-73
2021/01/27 02:10:19;;;;;;;26.48;23.63;;;0.70;99.90;;;;;;5092220;28;20409;-73
2021/01/27 02:13:04;;;;;;;26.88;23.58;;;;;;;;;;5092101;28;20378;-73
2021/01/27 02:15:47;;;;;;;27.30;23.25;;;0.90;99.90;;;;;;5092020;28;20459;-73
2021/01/27 02:18:37;;;;;;;29.02;24.25;;;0.90;99.90;;;;;;5092294;28;20382;-75
2021/01/27 02:21:22;;;;;;;26.92;23.70;;;;;;;;;;5091931;28;20378;-74
2021/01/27 02:23:53;;;;;;;26.85;24.05;;;;;;;;;;5082439;28;20393;-73
2021/01/27 02:26:41;;;;;;;28.27;24.88;;;0.70;99.90;;;;;;5071632;28;20383;-74
2021/01/27 02:29:26;;;;;;;27.00;24.10;;;0.80;99.90;;;;;;5071575;28;20391;-73
2021/01/27 02:31:51;;;;;;;31.27;25.73;;;0.90;99.90;;;;;;5076971;28;20453;-73
2021/01/27 02:34:54;;;;;;;31.20;26.33;;;0.80;99.90;;;;;;5091767;28;20778;-73
2021/01/27 02:37:25;;;;;;;30.48;26.02;;;0.40;99.90;;;;;;5091674;28;20377;-73
2021/01/27 02:39:58;;;;;;;30.13;25.70;;;0.80;99.90;;;;;;5091671;28;20382;-73
2021/01/27 02:42:47;;;;;;;31.77;26.95;;;0.60;99.90;;;;;;5091378;28;20864;-73
2021/01/27 02:45:17;;;;;;;31.77;27.33;;;;;;;;;;5091481;28;20409;-73
2021/01/27 02:48:25;;;;;;;35.77;28.27;;;0.50;99.90;;;;;;5091407;28;20472;-74
2021/01/27 02:50:57;;;;;;;31.33;27.00;;;0.80;99.90;;;;;;5048631;28;20409;-74
2021/01/27 02:53:32;;;;;;;31.00;26.58;;;0.60;99.90;;;;;;5048780;28;20385;-72
2021/01/27 02:56:12;;;;;;;31.13;27.13;;;0.70;99.90;;;;;;5074117;28;20382;-73
2021/01/27 02:58:43;;;;;;;30.52;26.73;;;0.50;99.90;;;;;;5091360;28;20382;-72
2021/01/27 03:01:29;;;;;;;34.00;28.15;;;0.40;99.90;;;;;;5091077;28;20477;-72
2021/01/27 03:03:59;;;;;;;30.80;26.67;;;;;;;;;;5091306;28;20873;-72
2021/01/27 03:06:25;;;;;;;31.30;26.50;;;;;;;;;;5091109;28;20744;-73
2021/01/27 03:08:58;;;;;;;31.80;27.88;;;0.40;99.90;;;;;;5072389;28;20624;-74
2021/01/27 03:11:27;;;;;;;31.08;27.58;;;0.60;99.90;;;;;;5070593;28;20478;-73
2021/01/27 03:13:54;;;;;;;32.38;28.63;;;0.70;99.90;;;;;;5070821;28;20414;-73
2021/01/27 03:16:30;;;;;;;30.08;26.63;;;0.40;99.90;;;;;;5070680;28;20388;-73
2021/01/27 03:19:04;;;;;;;33.78;28.65;;;0.40;99.90;;;;;;5091120;28;20740;-74
2021/01/27 03:21:33;;;;;;;38.15;30.83;;;;;;;;;;5090665;28;20418;-71
2021/01/27 03:24:04;;;;;;;32.50;28.20;;;0.60;99.90;;;;;;5080411;28;20387;-74
2021/01/27 03:27:01;;;;;;;35.28;28.88;;;0.30;99.90;;;;;;5074615;28;20390;-73
2021/01/27 03:29:32;;;;;;;32.03;28.58;;;0.40;99.90;;;;;;5090775;28;20409;-73
2021/01/27 03:32:04;;;;;;;31.33;27.92;;;0.60;99.90;;;;;;5079015;28;20383;-73
2021/01/27 03:34:36;;;;;;;31.23;26.30;;;-0.10;99.90;;;;;;5070462;28;20376;-73
2021/01/27 03:37:19;;;;;;;30.02;26.25;;;;;;;;;;5069787;28;20372;-74
2021/01/27 03:39:48;;;;;;;30.65;26.92;;;;;;;;;;5070422;28;20372;-74
2021/01/27 03:42:27;;;;;;;29.75;26.52;;;0.40;99.90;;;;;;5070269;28;20376;-74
2021/01/27 03:45:02;;;;;;;34.53;28.52;;;0.30;99.90;;;;;;5070568;28;20429;-73
2021/01/27 03:47:39;;;;;;;31.95;27.75;;;0.40;99.90;;;;;;5070397;28;21068;-74
2021/01/27 03:50:19;;;;;;;33.85;27.92;;;0.10;99.90;;;;;;5070423;28;20403;-74
2021/01/27 03:52:48;;;;;;;34.15;30.20;;;;;;;;;;5070102;28;20459;-74
2021/01/27 03:55:27;;;;;;;31.55;28.15;;;0.50;99.90;;;;;;5070099;28;20458;-74
2021/01/27 03:58:30;;;;;;;32.63;28.08;;;0.00;99.90;;;;;;5070302;28;20870;-74
2021/01/27 04:01:01;;;;;;;34.42;29.85;;;;;;;;;;5062062;28;20398;-73
2021/01/27 04:03:27;;;;;;;34.88;28.67;;;;;;;;;;5070261;28;20425;-73
2021/01/27 04:05:53;;;;;;;30.20;26.88;;;;;;;;;;5070107;28;20384;-73
2021/01/27 04:08:18;;;;;;;33.85;28.98;;;0.30;99.90;;;;;;5069998;28;20441;-73
2021/01/27 04:10:44;;;;;;;33.57;28.57;;;0.30;99.90;;;;;;5069942;28;20399;-73
2021/01/27 04:13:09;;;;;;;33.37;28.77;;;-0.60;99.90;;;;;;5070232;28;20468;-73
2021/01/27 04:15:35;;;;;;;31.73;28.33;;;0.20;99.90;;;;;;5070055;28;20776;-72
2021/01/27 04:18:01;;;;;;;31.45;27.80;;;;;;;;;;5070081;28;20755;-72
2021/01/27 04:20:28;;;;;;;32.83;27.27;;;;;;;;;;5070043;28;20380;-74
2021/01/27 04:22:54;;;;;;;33.67;28.85;;;0.30;99.90;;;;;;5069799;28;20379;-73
2021/01/27 04:25:19;;;;;;;34.70;28.00;;;0.40;99.90;;;;;;5069921;28;20390;-73
2021/01/27 04:27:45;;;;;;;32.30;28.83;;;0.30;99.90;;;;;;5070066;28;20801;-73
2021/01/27 04:30:17;;;;;;;34.05;27.88;;;-0.50;99.90;;;;;;5069994;28;20517;-73
2021/01/27 04:32:42;;;;;;;31.50;27.55;;;0.20;99.90;;;;;;5082921;28;20389;-73
2021/01/27 04:35:09;;;;;;;31.60;27.50;;;0.30;99.90;;;;;;5090080;28;20386;-73
2021/01/27 04:37:34;;;;;;;29.90;26.37;;;0.20;99.90;;;;;;5090068;28;20380;-74
2021/01/27 04:40:00;;;;;;;28.92;25.80;;;-0.10;99.90;;;;;;5090202;28;20382;-74
2021/01/27 04:42:28;;;;;;;31.60;26.73;;;-1.30;99.90;;;;;;5089835;28;20436;-74
2021/01/27 04:44:57;;;;;;;32.72;26.20;;;;;;;;;;5090051;28;20386;-74
2021/01/27 04:47:40;;;;;;;34.55;28.35;;;0.30;99.90;;;;;;5091074;28;20378;-74
2021/01/27 04:50:10;;;;;;;32.55;28.25;;;;;;;;;;5093707;28;20484;-74
2021/01/27 04:52:46;;;;;;;30.75;26.55;;;;;;;;;;5093363;28;20417;-73
2021/01/27 04:55:32;;;;;;;28.63;25.63;;;0.10;99.90;;;;;;5093658;28;20378;-72
2021/01/27 04:58:10;;;;;;;30.75;26.45;;;-0.70;99.90;;;;;;5072012;28;20385;-72
2021/01/27 05:00:49;;;;;;;31.40;27.90;;;-0.30;99.90;;;;;;5093515;28;21020;-73
2021/01/27 05:03:35;;;;;;;28.20;25.27;;;-0.70;99.90;;;;;;5093635;28;20464;-72
2021/01/27 05:06:08;;;;;;;30.70;27.40;;;0.10;99.90;;;;;;5093578;28;20378;-73
2021/01/27 05:08:36;;;;;;;29.45;25.55;;;;;;;;;;5093439;28;20385;-73
2021/01/27 05:11:04;;;;;;;29.08;25.88;;;;;;;;;;5093154;28;20398;-73
2021/01/27 05:13:45;;;;;;;30.80;26.95;;;-0.50;99.90;;;;;;5093206;28;20502;-73
2021/01/27 05:16:14;;;;;;;32.80;27.92;;;;;;;;;;5093356;28;20512;-73
2021/01/27 05:18:40;;;;;;;31.58;26.95;;;-0.60;99.90;;;;;;5093197;28;20447;-74
2021/01/27 05:21:23;;;;;;;32.78;27.85;;;0.00;99.90;;;;;;5092932;28;20417;-73
2021/01/27 05:23:49;;;;;;;34.03;29.05;;;-0.20;99.90;;;;;;5084147;28;20750;-74
2021/01/27 05:26:16;;;;;;;37.00;32.03;;;-0.10;99.90;;;;;;5073102;28;20395;-72
2021/01/27 05:28:45;;;;;;;35.70;30.47;;;;;;;;;;5072774;28;20380;-73
2021/01/27 05:31:11;;;;;;;36.45;30.60;;;0.10;99.90;;;;;;5072802;28;20405;-73
2021/01/27 05:33:48;;;;;;;33.65;28.25;;;-0.30;99.90;;;;;;5093059;28;20392;-74
2021/01/27 05:36:17;;;;;;;31.63;27.42;;;;;;;;;;5092871;28;20770;-74
2021/01/27 05:38:42;;;;;;;32.20;28.13;;;-0.90;99.90;;;;;;5092833;28;20859;-74
2021/01/27 05:41:15;;;;;;;32.33;27.37;;;;;;;;;;5092708;28;20416;-74
2021/01/27 05:43:41;;;;;;;29.92;26.27;;;;;;;;;;5092793;28;20384;-73
2021/01/27 05:46:26;;;;;;;29.63;26.43;;;-1.00;99.90;;;;;;5093034;28;20545;-73
2021/01/27 05:48:52;;;;;;;30.60;26.67;;;;;;;;;;5092844;28;20930;-73
2021/01/27 05:51:39;;;;;;;32.75;27.90;;;-0.30;99.90;;;;;;5092581;28;20430;-73
2021/01/27 05:54:21;;;;;;;31.30;27.90;;;;;;;;;;5092485;28;20382;-73
2021/01/27 05:56:48;;;;;;;34.70;29.10;;;;;;;;;;5091217;28;20414;-73
2021/01/27 05:59:32;;;;;;;36.25;30.55;;;;;;;;;;5091475;28;20381;-73
2021/01/27 06:02:01;;;;;;;41.30;33.85;;;;;;;;;;5092274;28;20430;-73
2021/01/27 06:04:29;;;;;;;42.80;35.38;;;;;;;;;;5092153;28;20414;-74
2021/01/27 06:06:59;;;;;;;48.72;37.50;;;;;;;;;;5092356;28;20382;-75
2021/01/27 06:09:30;;;;;;;44.08;35.70;;;;;;;;;;5092237;28;20398;-74
2021/01/27 06:12:04;;;;;;;40.95;34.40;;;;;;;;;;5091954;28;20861;-73
2021/01/27 06:14:30;;;;;;;46.53;36.85;;;;;;;;;;5092162;28;20848;-73
2021/01/27 06:16:56;;;;;;;44.97;35.37;;;;;;;;;;5091958;28;20437;-73
2021/01/27 06:19:25;;;;;;;45.85;36.50;;;-1.40;99.90;;;;;;5091923;28;20434;-74
2021/01/27 06:22:17;;;;;;;40.90;34.33;;;-1.30;99.90;;;;;;5091708;28;20432;-71
2021/01/27 06:25:12;;;;;;;37.67;32.63;;;-1.30;99.90;;;;;;5075747;28;20391;-72
2021/01/27 06:27:56;;;;;;;42.38;36.28;;;;;;;;;;5071767;28;20395;-73
2021/01/27 06:30:44;;;;;;;41.28;33.65;;;-1.50;99.90;;;;;;5071670;28;20905;-72
2021/01/27 06:33:53;;;;;;;45.83;37.50;;;-1.10;99.90;;;;;;5070652;28;20457;-74
2021/01/27 06:36:45;;;;;;;46.00;35.92;;;-1.50;99.90;;;;;;5049738;28;20390;-73
2021/01/27 06:39:17;;;;;;;44.70;36.40;;;;;;;;;;5067074;28;20375;-73
2021/01/27 06:41:57;;;;;;;43.13;35.13;;;-1.20;99.90;;;;;;5071216;28;20806;-74
2021/01/27 06:44:35;;;;;;;49.40;38.60;;;-1.60;99.90;;;;;;5071414;28;20396;-73
2021/01/27 06:47:05;;;;;;;51.38;38.92;;;;;;;;;;5071587;28;20502;-72
2021/01/27 06:49:50;;;;;;;49.80;37.53;;;-1.50;99.90;;;;;;5071285;28;20910;-73
2021/01/27 06:52:52;;;;;;;72.07;53.22;;;-1.30;99.90;;;;;;5071405;28;20421;-73
2021/01/27 06:55:21;;;;;;;51.33;40.65;;;;;;;;;;5071150;28;20380;-72
2021/01/27 06:58:05;;;;;;;49.92;41.58;;;-1.50;99.90;;;;;;5071111;28;20384;-72
2021/01/27 07:00:41;;;;;;;45.63;36.35;;;;;;;;;;5070984;28;20386;-73
2021/01/27 07:03:41;;;;;;;50.53;39.65;;;-1.30;99.90;;;;;;5071054;28;20371;-73
2021/01/27 07:06:10;;;;;;;45.17;37.43;;;;;;;;;;5061209;28;20570;-73
2021/01/27 07:09:03;;;;;;;38.50;32.20;;;-1.20;99.90;;;;;;5070773;28;20727;-72
2021/01/27 07:12:01;;;;;;;40.80;32.35;;;-1.30;99.90;;;;;;5070361;28;20414;-73
2021/01/27 07:14:45;;;;;;;37.95;32.25;;;;;;;;;;5070807;28;20386;-73
2021/01/27 07:17:32;;;;;;;39.70;31.50;;;;;;;;;;5070945;28;20402;-73
2021/01/27 07:20:37;;;;;;;35.78;30.08;;;-1.40;99.90;;;;;;5052730;28;20408;-72
2021/01/27 07:23:21;;;;;;;37.42;29.73;;;-1.20;99.90;;;;;;5048175;28;20404;-73
2021/01/27 07:26:02;;;;;;;36.33;29.70;;;-1.40;99.90;;;;;;5062220;28;20382;-72
2021/01/27 07:28:45;;;;;;;42.65;31.95;;;-0.80;99.90;;;;;;5070642;28;20436;-72
2021/01/27 07:31:32;;;;;;;45.83;39.57;;;-0.70;99.90;;;;;;5071086;28;20416;-72
2021/01/27 07:34:13;;;;;;;65.75;59.75;;;-1.00;99.90;;;;;;5090820;28;20374;-74
2021/01/27 07:36:48;;;;;;;39.33;35.03;;;-0.80;99.90;;;;;;5090837;28;20370;-73
2021/01/27 07:39:35;;;;;;;37.42;31.92;;;-0.90;99.90;;;;;;5090935;28;20374;-74
2021/01/27 07:42:08;;;;;;;43.50;33.80;;;;;;;;;;5090635;28;20410;-73
2021/01/27 07:44:36;;;;;;;39.67;32.83;;;;;;;;;;5090483;28;20370;-72
2021/01/27 07:47:13;;;;;;;47.40;37.80;;;-1.10;99.90;;;;;;5090789;28;20392;-73
2021/01/27 07:49:43;;;;;;;41.70;32.70;;;-0.30;99.90;;;;;;5090712;28;20412;-73
2021/01/27 07:52:27;;;;;;;34.92;28.80;;;-0.30;99.90;;;;;;5090495;28;20435;-73
2021/01/27 07:55:03;;;;;;;37.90;29.97;;;;;;;;;;5090560;28;20371;-73
2021/01/27 07:57:57;;;;;;;37.10;31.33;;;-1.00;99.90;;;;;;5090528;28;20374;-72
2021/01/27 08:00:37;;;;;;;36.90;29.55;;;-1.40;99.90;;;;;;5090637;28;20385;-71
2021/01/27 08:03:22;;;;;;;38.30;30.65;;;-1.20;99.90;;;;;;5090468;28;20381;-73
2021/01/27 08:05:49;;;;;;;47.10;34.85;;;;;;;;;;5090760;28;20370;-73
2021/01/27 08:08:20;;;;;;;51.78;36.22;;;-0.70;99.90;;;;;;5093087;28;20374;-72
2021/01/27 08:10:47;;;;;;;35.80;27.40;;;-0.90;99.90;;;;;;5091699;28;20410;-73
2021/01/27 08:13:39;;;;;;;35.58;28.40;;;;;;;;;;5091677;28;21145;-73
2021/01/27 08:16:07;;;;;;;34.58;28.20;;;;;;;;;;5089349;28;20408;-73
2021/01/27 08:18:34;;;;;;;34.50;27.45;;;;;;;;;;5090674;28;20384;-72
2021/01/27 08:21:17;;;;;;;35.70;27.33;;;-0.40;99.90;;;;;;5078898;28;20420;-73
2021/01/27 08:23:43;;;;;;;33.30;27.23;;;;;;;;;;5085418;28;20391;-73
2021/01/27 08:26:09;;;;;;;27.65;24.70;;;0.30;99.90;;;;;;5073816;28;20432;-73
2021/01/27 08:28:38;;;;;;;28.43;25.13;;;;;;;;;;5073982;28;20387;-73
2021/01/27 08:31:12;;;;;;;26.80;22.65;;;0.40;99.90;;;;;;5073693;28;20447;-71
2021/01/27 08:33:47;;;;;;;34.38;25.48;;;;;;;;;;5093896;28;20416;-73
2021/01/27 08:36:14;;;;;;;24.55;21.30;;;;;;;;;;5094177;28;20382;-73
2021/01/27 08:38:52;;;;;;;26.08;21.77;;;-0.10;99.90;;;;;;5093966;28;20392;-72
2021/01/27 08:41:36;;;;;;;25.00;20.50;;;;;;;;;;5093832;28;20386;-73
2021/01/27 08:44:02;;;;;;;23.58;21.08;;;;;;;;;;5093739;28;20748;-73
2021/01/27 08:46:42;;;;;;;27.77;22.10;;;;;;;;;;5093936;28;20385;-72
2021/01/27 08:49:09;;;;;;;26.77;22.27;;;0.50;99.90;;;;;;5093721;28;21131;-73
2021/01/27 08:51:47;;;;;;;25.63;21.53;;;0.80;99.90;;;;;;5093491;28;20426;-73
2021/01/27 08:54:50;;;;;;;25.50;22.33;;;;;;;;;;5093986;28;20767;-73
2021/01/27 08:57:17;;;;;;;23.83;20.80;;;0.40;99.90;;;;;;5050991;28;20389;-74
2021/01/27 09:00:04;;;;;;;24.48;20.83;;;0.90;99.90;;;;;;5085572;28;20743;-73
2021/01/27 09:02:44;;;;;;;26.02;22.42;;;;;;;;;;5093352;28;20480;-73
2021/01/27 09:05:23;;;;;;;28.47;23.03;;;0.70;99.90;;;;;;5093434;28;20389;-73
2021/01/27 09:07:55;;;;;;;27.00;21.33;;;;;;;;;;5093386;28;20390;-74
2021/01/27 09:10:25;;;;;;;26.38;21.65;;;;;;;;;;5093310;28;20864;-73
2021/01/27 09:12:51;;;;;;;27.03;22.47;;;;;;;;;;5093116;28;20512;-72
2021/01/27 09:15:24;;;;;;;30.80;26.25;;;;;;;;;;5092592;28;20428;-72
2021/01/27 09:17:50;;;;;;;33.15;27.02;;;1.00;99.90;;;;;;5093198;28;20461;-73
2021/01/27 09:20:24;;;;;;;30.23;24.52;;;1.00;99.90;;;;;;5093204;28;20465;-73
2021/01/27 09:23:00;;;;;;;31.05;25.20;;;0.80;99.90;;;;;;5092122;28;20382;-73
2021/01/27 09:25:26;;;;;;;30.30;24.85;;;0.90;99.90;;;;;;5072735;28;20391;-73
2021/01/27 09:28:04;;;;;;;27.00;22.88;;;;;;;;;;5072702;28;20388;-73
2021/01/27 09:30:30;;;;;;;26.65;22.42;;;1.00;99.90;;;;;;5073122;28;20491;-73
2021/01/27 09:33:15;;;;;;;28.33;23.70;;;;;;;;;;5087043;28;20463;-73
2021/01/27 09:35:42;;;;;;;28.15;23.75;;;;;;;;;;5092462;28;20366;-73
2021/01/27 09:38:19;;;;;;;28.63;25.53;;;1.10;99.90;;;;;;5092852;28;20848;-73
2021/01/27 09:40:48;;;;;;;29.55;24.10;;;0.50;99.90;;;;;;5092686;28;20393;-73
2021/01/27 09:43:17;;;;;;;28.95;25.17;;;1.00;99.90;;;;;;5092584;28;20447;-73
2021/01/27 09:45:46;;;;;;;29.00;23.63;;;1.10;99.90;;;;;;5092956;28;20405;-73
2021/01/27 09:48:13;;;;;;;27.10;22.70;;;;;;;;;;5092659;28;20385;-74
2021/01/27 09:50:43;;;;;;;27.25;22.75;;;1.20;99.90;;;;;;5092416;28;20429;-73
2021/01/27 09:53:23;;;;;;;28.58;23.98;;;1.10;99.90;;;;;;5092649;28;20373;-73
2021/01/27 09:55:48;;;;;;;29.25;24.60;;;1.30;99.90;;;;;;5092134;28;20902;-72
2021/01/27 09:58:14;;;;;;;27.05;23.55;;;;;;;;;;5092681;28;20387;-73
2021/01/27 10:00:40;;;;;;;29.08;24.15;;;1.40;99.90;;;;;;5092293;28;20727;-73
2021/01/27 10:03:29;;;;;;;26.63;22.42;;;1.50;99.90;;;;;;5092244;28;20515;-71
2021/01/27 10:05:55;;;;;;;27.75;22.65;;;;;;;;;;5092234;28;20378;-73
2021/01/27 10:08:24;;;;;;;25.45;21.60;;;;;;;;;;5092182;28;20374;-73
2021/01/27 10:11:02;;;;;;;25.13;20.63;;;;;;;;;;5091921;28;20509;-72
2021/01/27 10:13:32;;;;;;;24.20;20.63;;;1.70;99.90;;;;;;5092072;28;20370;-73
2021/01/27 10:16:14;;;;;;;22.35;19.98;;;2.50;99.90;;;;;;5092034;28;20422;-72
2021/01/27 10:18:42;;;;;;;22.60;19.80;;;2.70;99.90;;;;;;5091972;28;20381;-73
2021/01/27 10:21:14;;;;;;;22.13;18.60;;;2.70;99.90;;;;;;5078419;28;20862;-73
2021/01/27 10:23:43;;;;;;;21.45;18.98;;;1.90;99.90;;;;;;5059162;28;20893;-73
2021/01/27 10:26:32;;;;;;;22.05;18.60;;;1.80;99.90;;;;;;5071622;28;20398;-71
2021/01/27 10:29:11;;;;;;;21.30;19.02;;;2.60;99.90;;;;;;5071720;28;20416;-73
2021/01/27 10:31:37;;;;;;;21.23;18.33;;;2.60;99.90;;;;;;5071161;28;20963;-72
2021/01/27 10:34:03;;;;;;;21.88;18.70;;;1.70;99.90;;;;;;5071396;28;20387;-72
2021/01/27 10:36:29;;;;;;;23.77;18.30;;;;;;;;;;5071515;28;20734;-72
2021/01/27 10:39:15;;;;;;;22.63;18.20;;;2.30;99.90;;;;;;5071522;28;20382;-74
2021/01/27 10:41:41;;;;;;;21.42;18.27;;;1.50;99.90;;;;;;5071060;28;20379;-71
2021/01/27 10:44:27;;;;;;;22.60;18.90;;;1.80;99.90;;;;;;5071086;28;20388;-73
2021/01/27 10:46:56;;;;;;;24.35;19.45;;;1.60;99.90;;;;;;5071106;28;20435;-73
2021/01/27 10:49:22;;;;;;;20.63;17.83;;;2.60;99.90;;;;;;5070986;28;20395;-74
2021/01/27 10:51:48;;;;;;;20.08;17.20;;;2.30;99.90;;;;;;5071028;28;20917;-73
2021/01/27 10:54:16;;;;;;;22.37;17.90;;;;;;;;;;5070838;28;20391;-72
2021/01/27 10:56:42;;;;;;;19.63;16.90;;;2.90;99.90;;;;;;5071060;28;20715;-73
2021/01/27 10:59:08;;;;;;;20.35;17.05;;;2.00;99.90;;;;;;5070879;28;20509;-72
2021/01/27 11:01:34;;;;;;;23.50;18.03;;;;;;;;;;5078524;28;20413;-73
2021/01/27 11:03:59;;;;;;;19.40;16.40;;;3.00;99.90;;;;;;5084005;28;20465;-72
2021/01/27 11:06:25;;;;;;;23.40;18.30;;;2.50;99.90;;;;;;5078237;28;20384;-74
2021/01/27 11:08:51;;;;;;;20.80;17.25;;;2.90;99.90;;;;;;5082644;28;20386;-74
2021/01/27 11:11:17;;;;;;;19.33;16.98;;;2.20;99.90;;;;;;5082257;28;20402;-74
2021/01/27 11:13:43;;;;;;;20.83;17.35;;;;;;;;;;5079087;28;20748;-73
2021/01/27 11:16:10;;;;;;;21.23;17.20;;;;;;;;;;5082416;28;20382;-72
2021/01/27 11:18:37;;;;;;;18.20;15.82;;;2.00;99.90;;;;;;5081334;28;20893;-71
2021/01/27 11:21:04;;;;;;;19.88;16.20;;;1.80;99.90;;;;;;5082120;28;20895;-73
2021/01/27 11:23:30;;;;;;;16.87;15.07;;;2.40;99.90;;;;;;5080437;28;20753;-71
2021/01/27 11:25:55;;;;;;;19.10;15.87;;;2.90;99.90;;;;;;5082685;28;20386;-73
2021/01/27 11:28:22;;;;;;;22.40;16.97;;;2.90;99.90;;;;;;5079356;28;20379;-72
2021/01/27 11:30:49;;;;;;;22.40;17.05;;;;;;;;;;5085628;28;20399;-72
2021/01/27 11:33:16;;;;;;;26.05;18.20;;;2.70;99.90;;;;;;5078547;28;20408;-72
2021/01/27 11:35:41;;;;;;;23.70;16.30;;;2.00;99.90;;;;;;5079848;28;20907;-73
2021/01/27 11:38:07;;;;;;;23.90;16.83;;;2.20;99.90;;;;;;5078531;28;20380;-73
2021/01/27 11:40:33;;;;;;;23.38;17.20;;;3.10;99.90;;;;;;5084048;28;20420;-73
2021/01/27 11:42:59;;;;;;;23.87;16.27;;;;;;;;;;5082915;28;20464;-72
2021/01/27 11:45:25;;;;;;;22.97;16.80;;;;;;;;;;5081202;28;20469;-73
2021/01/27 11:47:51;;;;;;;20.88;16.30;;;;;;;;;;5081111;28;20417;-73
2021/01/27 11:50:21;;;;;;;18.48;15.88;;;2.60;99.90;;;;;;5082768;28;20416;-73
2021/01/27 11:52:49;;;;;;;18.98;15.32;;;3.10;99.90;;;;;;5070849;28;20366;-73
2021/01/27 11:55:15;;;;;;;18.48;15.40;;;;;;;;;;5081378;28;20423;-73
2021/01/27 11:57:41;;;;;;;17.38;14.68;;;;;;;;;;5080464;28;20872;-72
2021/01/27 12:00:08;;;;;;;17.83;14.90;;;2.40;99.90;;;;;;5081059;28;20515;-73
2021/01/27 12:02:34;;;;;;;18.15;15.27;;;3.10;99.90;;;;;;5080065;28;20388;-72
2021/01/27 12:04:59;;;;;;;17.73;15.63;;;2.40;99.90;;;;;;5083864;28;20398;-72
2021/01/27 12:07:25;;;;;;;18.30;16.37;;;;;;;;;;5079050;28;20444;-73
2021/01/27 12:09:51;;;;;;;18.98;15.80;;;2.90;99.90;;;;;;5083912;28;20490;-73
2021/01/27 12:12:17;;;;;;;19.88;16.33;;;3.30;99.90;;;;;;5077975;28;20390;-73
2021/01/27 12:14:42;;;;;;;18.73;16.33;;;3.00;99.90;;;;;;5083664;28;20386;-73
2021/01/27 12:17:08;;;;;;;20.43;16.63;;;2.90;99.90;;;;;;5084186;28;20393;-72
2021/01/27 12:19:33;;;;;;;20.57;16.60;;;2.20;99.90;;;;;;5077272;28;20382;-72
2021/01/27 12:21:59;;;;;;;21.07;17.87;;;3.00;99.90;;;;;;5081694;28;20512;-73
2021/01/27 12:24:24;;;;;;;20.73;16.90;;;2.80;99.90;;;;;;5080858;28;20410;-73
2021/01/27 12:26:51;;;;;;;22.77;19.20;;;2.40;99.90;;;;;;5079597;28;20506;-73
2021/01/27 12:29:16;;;;;;;22.40;18.50;;;3.10;99.90;;;;;;5081271;28;20378;-73
2021/01/27 12:31:42;;;;;;;24.40;20.50;;;3.10;99.90;;;;;;5077060;28;20404;-72
2021/01/27 12:34:09;;;;;;;19.23;17.23;;;2.40;99.90;;;;;;5069600;28;20402;-73
2021/01/27 12:36:35;;;;;;;22.07;19.40;;;;;;;;;;5069913;28;20384;-72
2021/01/27 12:39:01;;;;;;;23.23;19.77;;;;;;;;;;5069862;28;20429;-72
2021/01/27 12:41:26;;;;;;;23.85;19.45;;;;;;;;;;5069538;28;20434;-71
2021/01/27 12:43:53;;;;;;;22.00;18.13;;;3.00;99.90;;;;;;5069733;28;20387;-71
2021/01/27 12:46:19;;;;;;;20.17;17.98;;;;;;;;;;5069824;28;20384;-72
2021/01/27 12:48:44;;;;;;;21.38;18.58;;;2.60;99.90;;;;;;5069666;28;20440;-73
2021/01/27 12:51:10;;;;;;;23.80;20.35;;;3.00;99.90;;;;;;5069463;28;20414;-73
2021/01/27 12:53:35;;;;;;;22.33;19.85;;;2.50;99.90;;;;;;5069627;28;20391;-72
2021/01/27 12:56:01;;;;;;;28.10;21.45;;;2.30;99.90;;;;;;5069673;28;20392;-72
2021/01/27 12:58:26;;;;;;;26.33;21.08;;;2.90;99.90;;;;;;5069540;28;20392;-74
2021/01/27 13:00:52;;;;;;;26.07;20.03;;;1.90;99.90;;;;;;5069564;28;20864;-73
2021/01/27 13:03:17;;;;;;;23.90;20.33;;;2.60;99.90;;;;;;5069490;28;20939;-72
2021/01/27 13:05:43;;;;;;;22.80;19.60;;;2.80;99.90;;;;;;5069809;28;20434;-73
2021/01/27 13:08:10;;;;;;;22.20;19.20;;;;;;;;;;5070352;28;20474;-73
2021/01/27 13:10:41;;;;;;;20.13;17.70;;;;;;;;;;5072991;28;20410;-73
2021/01/27 13:13:08;;;;;;;25.15;22.38;;;2.30;99.90;;;;;;5072918;28;20379;-73
2021/01/27 13:15:34;;;;;;;23.57;20.77;;;;;;;;;;5072590;28;20387;-73
2021/01/27 13:18:00;;;;;;;26.35;21.05;;;;;;;;;;5072810;28;20467;-72
2021/01/27 13:20:26;;;;;;;25.15;21.00;;;;;;;;;;5073059;28;20850;-73
2021/01/27 13:22:52;;;;;;;30.52;22.27;;;1.60;99.90;;;;;;5072565;28;20436;-72
2021/01/27 13:25:21;;;;;;;28.83;23.55;;;2.30;99.90;;;;;;5072782;28;20387;-72
2021/01/27 13:27:47;;;;;;;26.67;22.37;;;1.60;99.90;;;;;;5072828;28;20384;-72
2021/01/27 13:30:14;;;;;;;27.08;22.40;;;2.10;99.90;;;;;;5072794;28;20916;-72
2021/01/27 13:32:40;;;;;;;26.75;22.65;;;2.30;99.90;;;;;;5085612;28;20420;-72